Moran, WY (83013)

11:56 AM MDT on September 17, 2014 (GMT -0600)
MesoWest BASE CAMP WY US SNOTEL | Change Station
CLOSE
Current Station
Personal Weather Station
Location: Moran, WY
Elevation: 7029 ft
Nearby Weather Stations

Elev 7029 ft 43.95 °N, 110.45 °W | Updated 1 hour ago

Partly Cloudy
Partly Cloudy
52.0 °F
Feels Like 52.0 °F
N
-
Wind Variable Wind from North

Today
High -- | Low -- °F
--% Chance of Precip.
Yesterday
High -- | Low -- °F
Precip. -- in
7:02 AM 7:27 PM
Waning Crescent, 34% visible
Pressure 30.18 in
Visibility 10.0 miles
Clouds Clear
Dew Point Not available.
Humidity Not available.
Rainfall -999.00 in
Snow Depth 0 in , 0 in , 1 in
UV 7 out of 12
Pollen 5.90 out of 12
Air Quality Not available.
Flu Activity Not available.
METAR KDUB 171735Z AUTO 26014G17KT 10SM CLR 20/01 A3018 RMK AO2

More Conditions Fewer Conditions

Pressure 30.18 in
Visibility 10.0 miles
Clouds Clear
Dew Point Not available.
Humidity Not available.
Rainfall -999.00 in
Snow Depth 0 in , 0 in , 1 in
UV 7 out of 12
Pollen 5.90 out of 12
Air Quality Not available.
Flu Activity Not available.
METAR KDUB 171735Z AUTO 26014G17KT 10SM CLR 20/01 A3018 RMK AO2

More Conditions Fewer Conditions

10-Day Weather Forecast

Almanac

Astronomy

Sep. 17, 2014 Rise Set
Actual Time 7:02 AM MDT 7:27 PM MDT
Civil Twilight 6:33 AM MDT 7:56 PM MDT
Nautical Twilight 5:59 AM MDT 8:30 PM MDT
Astronomical Twilight 5:24 AM MDT 9:05 PM MDT
Moon 12:57 AM MDT 3:48 PM MDT
Length of Visible Light 13h 22m
Length of Day
12h 24m
Tomorrow will be 3m 0s shorter.
Waning Crescent, 34% of the Moon is Illuminated
Today
Waning Crescent
Sep 24
New
Oct 1
First Quarter
Oct 8
Full
Oct 15
Last Quarter

Today's Extremes

State Highs State Lows

Community

WunderPhotos

Upload Photos

1,754,111 photos uploaded!

Nearby

Snow Depth

Station Depth Elevation
Crow Creek 0 in 8330 ft
Base Camp 0 in 7030 ft
New Fork Lake 1 in 8340 ft
Kelley R.S. 0 in 8180 ft
Sand Lake 0 in 10050 ft

Earthquake Activity

City Distance Mag. Time & Date
No recent earthquake activity has been reported nearby.
Minimum magnitude displayed is 2.5.

Coastal Water Temperatures

Place Temperature
No Stations Reporting

Nearby Weather Stations